Terminal Aerodrome Forecast
Issued by NWS

Home | Current Version | Previous Version | Text Only | Print | Product List | Glossary On
Versions: 1 2 3 4 5 6 7 8 9 10 11 12 13 14 15 16 17 18 19 20 21 22 23 24 25 26
000
FTUS45 KGJT 011736
TAFRIL
TAF
KRIL 011736Z 0118/0218 VRB03KT P6SM FEW120 SCT250
     FM012200 31008KT P6SM VCTS SCT100CB BKN150
     FM020300 11010KT P6SM BKN100
     FM020600 13003KT P6SM SCT100 BKN200=

USA.gov is the U.S. government's official web portal to all federal, state and local government web resources and services.